Time;durP1;ratioP1;P1;durP2;ratioP2;P2;SDS_P1;SDS_P2;PMS_P1;PMS_P2;Temp;Humidity;BMP_temperature;BMP_pressure;BME280_temperature;BME280_humidity;BME280_pressure;Samples;Min_cycle;Max_cycle;Signal;HPM_P1;HPM_P2
2021/10/29 00:00:35;;;;;;;1.33;1.23;;;;;;;4.05;94.13;99833.66;5091428;28;20030;-81
2021/10/29 00:03:02;;;;;;;0.63;0.63;;;;;;;4.14;93.97;99847.09;5091429;28;20066;-82
2021/10/29 00:05:28;;;;;;;2.03;1.93;;;;;;;4.05;94.56;99806.31;5091495;28;20031;-82
2021/10/29 00:07:54;;;;;;;0.85;0.85;;;;;;;4.26;95.84;99835.97;5091294;28;20083;-81
2021/10/29 00:10:19;;;;;;;0.32;0.32;;;;;;;4.40;95.29;99828.75;5091144;28;20411;-80
2021/10/29 00:12:45;;;;;;;2.15;2.05;;;;;;;4.40;94.74;99839.72;5091211;28;20062;-80
2021/10/29 00:15:11;;;;;;;1.27;1.27;;;;;;;4.05;94.19;99777.03;5091036;28;20407;-81
2021/10/29 00:17:37;;;;;;;2.22;2.13;;;;;;;4.06;94.10;99805.16;5091142;28;20024;-80
2021/10/29 00:20:04;;;;;;;0.60;0.60;;;;;;;4.32;94.13;99839.97;5091565;28;20035;-80
2021/10/29 00:22:29;;;;;;;0.67;0.67;;;;;;;4.07;94.33;99823.16;5092759;28;20055;-81
2021/10/29 00:24:55;;;;;;;0.40;0.40;;;;;;;4.01;93.39;99830.09;5092401;28;20495;-81
2021/10/29 00:27:20;;;;;;;0.63;0.63;;;;;;;3.92;92.61;99822.13;5092759;28;20031;-81
2021/10/29 00:29:46;;;;;;;1.17;1.17;;;;;;;4.01;92.92;99839.09;5091048;28;20020;-81
2021/10/29 00:32:11;;;;;;;1.58;1.50;;;;;;;3.89;93.18;99828.31;5091165;28;20071;-81
2021/10/29 00:34:37;;;;;;;1.55;1.45;;;;;;;3.70;93.47;99809.25;5092090;28;20051;-80
2021/10/29 00:37:02;;;;;;;1.13;1.13;;;;;;;3.30;94.80;99790.56;5090841;28;20032;-81
2021/10/29 00:39:28;;;;;;;1.27;1.27;;;;;;;3.39;94.72;99803.97;5090957;28;20032;-80
2021/10/29 00:41:53;;;;;;;1.13;1.13;;;;;;;3.52;95.14;99841.69;5090864;28;20447;-80
2021/10/29 00:44:24;;;;;;;1.52;1.42;;;;;;;3.68;95.49;99833.41;5090933;28;20399;-80
2021/10/29 00:46:50;;;;;;;2.20;1.77;;;;;;;3.56;95.03;99842.53;5090936;28;20050;-82
2021/10/29 00:49:16;;;;;;;0.70;0.70;;;;;;;3.46;95.85;99820.50;5092297;28;20437;-82
2021/10/29 00:51:42;;;;;;;0.47;0.47;;;;;;;3.54;97.43;99819.50;5090938;28;20036;-81
2021/10/29 00:54:07;;;;;;;1.20;1.20;;;;;;;3.71;98.59;99819.03;5090887;28;20439;-80
2021/10/29 00:56:33;;;;;;;1.02;1.02;;;;;;;3.95;98.67;99815.94;5090972;28;20092;-81
2021/10/29 00:58:59;;;;;;;0.75;0.75;;;;;;;4.14;97.97;99820.53;5090673;28;20104;-82
2021/10/29 01:01:24;;;;;;;1.25;1.15;;;;;;;4.21;97.46;99806.19;5090741;28;20020;-80
2021/10/29 01:03:50;;;;;;;0.40;0.40;;;;;;;4.28;96.85;99834.44;5093805;28;20027;-81
2021/10/29 01:06:15;;;;;;;1.25;1.25;;;;;;;4.02;96.29;99780.50;5094530;28;20102;-81
2021/10/29 01:08:41;;;;;;;0.50;0.50;;;;;;;3.94;96.60;99761.63;5094578;28;20030;-82
2021/10/29 01:11:13;;;;;;;0.20;0.20;;;;;;;4.35;96.86;99796.25;5095767;28;20377;-82
2021/10/29 01:13:38;;;;;;;0.50;0.50;;;;;;;3.85;96.61;99753.69;5094456;28;20032;-80
2021/10/29 01:16:05;;;;;;;0.30;0.30;;;;;;;4.25;96.71;99809.78;5094346;28;20562;-82
2021/10/29 01:18:31;;;;;;;1.17;1.17;;;;;;;4.09;96.28;99791.56;5094366;28;20024;-80
2021/10/29 01:20:57;;;;;;;1.73;1.63;;;;;;;4.08;96.00;99754.44;5094287;28;20555;-81
2021/10/29 01:23:22;;;;;;;1.77;1.55;;;;;;;4.32;95.53;99804.41;5094353;28;20028;-83
2021/10/29 01:25:48;;;;;;;1.35;1.25;;;;;;;4.14;96.03;99767.78;5095788;28;20063;-81
2021/10/29 01:28:14;;;;;;;0.38;0.38;;;;;;;4.41;96.73;99805.72;5094202;28;20536;-80
2021/10/29 01:30:40;;;;;;;0.30;0.30;;;;;;;4.35;95.95;99790.00;5095654;28;20032;-81
2021/10/29 01:33:06;;;;;;;0.30;0.30;;;;;;;4.41;95.59;99794.00;5094044;28;20028;-81
2021/10/29 01:35:31;;;;;;;1.00;1.00;;;;;;;4.30;95.31;99787.56;5094036;28;20120;-80
2021/10/29 01:37:58;;;;;;;1.10;1.00;;;;;;;4.35;95.44;99790.00;5094016;28;20062;-81
2021/10/29 01:40:23;;;;;;;1.60;1.58;;;;;;;4.45;95.22;99808.53;5093873;28;20028;-79
2021/10/29 01:42:49;;;;;;;0.30;0.30;;;;;;;4.39;95.15;99790.84;5093870;28;20028;-81
2021/10/29 01:45:16;;;;;;;0.50;0.50;;;;;;;4.38;94.99;99794.75;5093780;28;20399;-80
2021/10/29 01:47:41;;;;;;;0.25;0.25;;;;;;;4.25;95.98;99807.81;5093640;28;20059;-80
2021/10/29 01:50:08;;;;;;;3.92;2.42;;;;;;;4.38;95.82;99819.38;5093828;28;20067;-81
2021/10/29 01:52:34;;;;;;;0.40;0.40;;;;;;;3.99;95.52;99805.03;5093639;28;20518;-80
2021/10/29 01:54:59;;;;;;;1.20;1.20;;;;;;;3.99;95.26;99791.38;5093606;28;20115;-79
2021/10/29 01:57:25;;;;;;;1.73;1.65;;;;;;;4.09;96.00;99780.63;5093408;28;20111;-82
2021/10/29 01:59:51;;;;;;;1.17;1.17;;;;;;;4.23;95.84;99799.19;5093620;28;20028;-80
2021/10/29 02:02:16;;;;;;;2.80;2.60;;;;;;;4.34;95.04;99807.59;5093479;28;20020;-81
2021/10/29 02:04:42;;;;;;;1.58;1.48;;;;;;;4.18;94.98;99791.28;5093638;28;20035;-81
2021/10/29 02:07:07;;;;;;;0.70;0.70;;;;;;;3.95;95.13;99753.06;5093448;28;20057;-82
2021/10/29 02:09:33;;;;;;;0.98;0.98;;;;;;;4.36;95.08;99807.97;5093224;28;20036;-79
2021/10/29 02:11:58;;;;;;;0.50;0.50;;;;;;;4.34;94.45;99793.91;5093192;28;20499;-80
2021/10/29 02:14:24;;;;;;;4.93;0.73;;;;;;;4.42;93.97;99803.78;5092351;28;20031;-81
2021/10/29 02:16:49;;;;;;;6.85;2.40;;;;;;;4.49;93.21;99809.38;5093091;28;20077;-81
2021/10/29 02:19:15;;;;;;;3.70;1.23;;;;;;;4.41;93.42;99805.72;5093084;28;20477;-81
2021/10/29 02:21:41;;;;;;;2.15;2.05;;;;;;;4.20;93.56;99794.47;5093072;28;20020;-81
2021/10/29 02:24:06;;;;;;;0.47;0.47;;;;;;;4.12;94.37;99802.91;5093094;28;20544;-81
2021/10/29 02:26:34;;;;;;;0.75;0.75;;;;;;;4.04;94.37;99802.00;5093019;28;20020;-81
2021/10/29 02:29:00;;;;;;;2.40;2.23;;;;;;;4.06;93.94;99797.75;5093048;28;20038;-81
2021/10/29 02:31:26;;;;;;;0.60;0.60;;;;;;;3.54;93.48;99735.59;5094327;28;20063;-81
2021/10/29 02:33:53;;;;;;;1.23;1.23;;;;;;;3.86;93.54;99801.69;5092629;28;20056;-81
2021/10/29 02:36:19;;;;;;;1.48;1.48;;;;;;;3.85;93.90;99802.88;5092976;28;20043;-83
2021/10/29 02:38:44;;;;;;;0.40;0.40;;;;;;;3.66;94.82;99787.31;5092818;28;20024;-82
2021/10/29 02:41:10;;;;;;;0.68;0.68;;;;;;;3.63;96.03;99806.38;5092794;28;20101;-83
2021/10/29 02:43:36;;;;;;;0.70;0.70;;;;;;;3.63;96.95;99798.97;5093203;28;20051;-82
2021/10/29 02:46:01;;;;;;;0.95;0.95;;;;;;;3.66;97.26;99795.53;5092884;28;20497;-81
2021/10/29 02:48:27;;;;;;;0.38;0.38;;;;;;;3.44;97.71;99785.34;5092718;28;20056;-81
2021/10/29 02:50:52;;;;;;;0.32;0.32;;;;;;;3.54;98.00;99816.75;5092497;28;20078;-82
2021/10/29 02:53:17;;;;;;;1.70;1.50;;;;;;;3.53;97.75;99774.19;5092645;28;20036;-81
2021/10/29 02:55:43;;;;;;;0.55;0.55;;;;;;;3.63;97.74;99789.97;5092479;28;20036;-82
2021/10/29 02:58:09;;;;;;;0.40;0.40;;;;;;;3.47;97.67;99756.53;5092261;28;20070;-81
2021/10/29 03:00:34;;;;;;;1.15;1.15;;;;;;;3.62;97.11;99759.13;5092478;28;20442;-80
2021/10/29 03:03:00;;;;;;;0.30;0.30;;;;;;;3.57;97.08;99789.50;5092834;28;20035;-81
2021/10/29 03:05:26;;;;;;;0.30;0.30;;;;;;;3.47;97.23;99745.59;5093605;28;20020;-81
2021/10/29 03:07:52;;;;;;;0.85;0.80;;;;;;;3.44;97.33;99758.00;5092208;28;20240;-81
2021/10/29 03:10:17;;;;;;;0.47;0.47;;;;;;;3.64;97.62;99780.63;5092307;28;20039;-81
2021/10/29 03:12:43;;;;;;;1.80;0.93;;;;;;;3.55;98.03;99774.63;5092462;28;20028;-79
2021/10/29 03:15:10;;;;;;;1.05;1.05;;;;;;;3.55;97.54;99763.69;5092204;28;20035;-80
2021/10/29 03:17:36;;;;;;;0.68;0.68;;;;;;;3.63;98.13;99796.22;5092063;28;20028;-82
2021/10/29 03:20:04;;;;;;;2.58;2.45;;;;;;;3.68;97.64;99779.53;5092072;28;20046;-80
2021/10/29 03:22:29;;;;;;;2.47;1.80;;;;;;;3.69;97.81;99786.59;5092176;28;20055;-83
2021/10/29 03:24:55;;;;;;;1.05;1.02;;;;;;;3.60;97.04;99768.84;5091843;28;20499;-80
2021/10/29 03:27:21;;;;;;;0.32;0.32;;;;;;;3.50;97.10;99753.03;5091969;28;20032;-81
2021/10/29 03:29:47;;;;;;;0.47;0.47;;;;;;;3.59;97.44;99784.47;5091981;28;20035;-82
2021/10/29 03:32:12;;;;;;;0.57;0.57;;;;;;;3.45;97.63;99770.53;5092807;28;20081;-81
2021/10/29 03:34:37;;;;;;;0.20;0.20;;;;;;;3.37;97.34;99729.81;5093190;28;20047;-83
2021/10/29 03:37:07;;;;;;;0.60;0.60;;;;;;;3.61;97.20;99768.50;5092091;28;20028;-83
2021/10/29 03:39:38;;;;;;;1.25;1.10;;;;;;;3.66;97.83;99787.31;5091880;28;20039;-84
2021/10/29 03:42:17;;;;;;;0.38;0.38;;;;;;;3.43;97.65;99750.22;5092366;28;20024;-81
2021/10/29 03:45:03;;;;;;;1.77;1.75;;;;;;;3.37;96.54;99751.66;5091789;28;20515;-82
2021/10/29 03:47:32;;;;;;;0.32;0.32;;;;;;;3.48;95.05;99797.13;5093029;28;20035;-81
2021/10/29 03:50:14;;;;;;;0.85;0.85;;;;;;;3.12;94.81;99738.34;5091685;28;20028;-82
2021/10/29 03:52:49;;;;;;;0.32;0.32;;;;;;;3.15;95.04;99767.63;5091664;28;20085;-82
2021/10/29 03:55:14;;;;;;;0.22;0.22;;;;;;;2.96;95.89;99753.97;5093240;28;20028;-82
2021/10/29 03:57:40;;;;;;;0.47;0.47;;;;;;;3.08;95.96;99774.88;5091616;28;20080;-83
2021/10/29 04:00:06;;;;;;;0.35;0.35;;;;;;;3.11;95.26;99749.59;5091578;28;20384;-83
2021/10/29 04:02:31;;;;;;;0.52;0.52;;;;;;;2.95;95.26;99741.50;5091510;28;20068;-83
2021/10/29 04:04:56;;;;;;;1.48;1.48;;;;;;;3.27;95.88;99796.72;5091716;28;20528;-83
2021/10/29 04:07:22;;;;;;;0.55;0.50;;;;;;;2.99;95.97;99752.47;5091702;28;20023;-82
2021/10/29 04:09:48;;;;;;;3.22;1.67;;;;;;;3.28;95.93;99774.53;5093043;28;20034;-81
2021/10/29 04:12:14;;;;;;;0.40;0.40;;;;;;;3.28;95.96;99787.38;5092618;28;20403;-80
2021/10/29 04:14:42;;;;;;;0.30;0.30;;;;;;;3.21;95.81;99779.03;5091292;28;20502;-81
2021/10/29 04:17:07;;;;;;;1.17;1.08;;;;;;;2.85;97.23;99740.13;5091270;28;20514;-82
2021/10/29 04:19:33;;;;;;;1.40;1.33;;;;;;;3.12;98.68;99782.00;5091373;28;20031;-81
2021/10/29 04:22:00;;;;;;;0.50;0.50;;;;;;;3.20;98.53;99774.72;5091363;28;20020;-82
2021/10/29 04:24:26;;;;;;;0.30;0.30;;;;;;;3.41;98.79;99782.56;5092734;28;20030;-82
2021/10/29 04:26:52;;;;;;;1.33;1.25;;;;;;;3.44;98.73;99793.53;5091210;28;20145;-80
2021/10/29 04:29:24;;;;;;;2.65;2.45;;;;;;;3.33;98.97;99769.91;5091128;28;20040;-82
2021/10/29 04:31:50;;;;;;;0.50;0.50;;;;;;;3.37;98.83;99762.59;5091909;28;20115;-82
2021/10/29 04:34:21;;;;;;;1.55;1.02;;;;;;;3.80;98.58;99796.94;5090840;28;20048;-81
2021/10/29 04:36:48;;;;;;;0.85;0.85;;;;;;;3.46;97.48;99763.91;5091303;28;20032;-81
2021/10/29 04:39:14;;;;;;;0.38;0.38;;;;;;;3.54;96.50;99786.69;5094819;28;20488;-82
2021/10/29 04:41:42;;;;;;;0.65;0.65;;;;;;;3.25;96.88;99750.66;5096128;28;20024;-81
2021/10/29 04:44:08;;;;;;;0.30;0.30;;;;;;;3.46;98.02;99774.84;5095094;28;20083;-83
2021/10/29 04:46:34;;;;;;;2.05;1.85;;;;;;;2.92;98.37;99695.81;5095021;28;20399;-80
2021/10/29 04:49:00;;;;;;;1.33;1.33;;;;;;;3.35;98.21;99748.50;5095312;28;20074;-80
2021/10/29 04:51:27;;;;;;;1.38;1.38;;;;;;;3.59;98.45;99786.41;5094760;28;20028;-79
2021/10/29 04:53:53;;;;;;;0.98;0.98;;;;;;;3.51;97.69;99780.00;5095029;28;20419;-81
2021/10/29 04:56:19;;;;;;;0.30;0.30;;;;;;;3.60;97.75;99786.03;5094772;28;20032;-81
2021/10/29 04:58:44;;;;;;;0.93;0.93;;;;;;;3.65;97.79;99791.22;5094585;28;20496;-82
2021/10/29 05:01:10;;;;;;;2.92;2.47;;;;;;;3.62;97.79;99780.97;5094830;28;20024;-79
2021/10/29 05:03:35;;;;;;;0.73;0.73;;;;;;;3.68;97.14;99773.28;5094734;28;20024;-80
2021/10/29 05:06:00;;;;;;;0.70;0.70;;;;;;;3.59;97.16;99764.53;5094783;28;20111;-80
2021/10/29 05:08:26;;;;;;;0.82;0.82;;;;;;;3.68;97.14;99785.00;5094824;28;20438;-82
2021/10/29 05:10:51;;;;;;;0.40;0.40;;;;;;;3.65;97.20;99783.00;5094510;28;20407;-80
2021/10/29 05:13:17;;;;;;;1.55;1.55;;;;;;;3.55;97.51;99772.69;5094499;28;20517;-79
2021/10/29 05:15:42;;;;;;;0.70;0.70;;;;;;;3.50;98.06;99794.03;5094454;28;20502;-81
2021/10/29 05:18:13;;;;;;;0.45;0.45;;;;;;;3.60;97.50;99766.13;5094352;28;20032;-82
2021/10/29 05:20:39;;;;;;;0.85;0.85;;;;;;;3.73;96.77;99786.66;5094646;28;20113;-82
2021/10/29 05:23:04;;;;;;;1.20;1.20;;;;;;;3.88;96.48;99802.13;5094330;28;20064;-81
2021/10/29 05:25:30;;;;;;;0.73;0.73;;;;;;;3.76;96.24;99793.31;5094360;28;20446;-81
2021/10/29 05:27:55;;;;;;;2.58;1.25;;;;;;;4.02;95.51;99801.59;5093671;28;20604;-83
2021/10/29 05:30:21;;;;;;;1.73;1.63;;;;;;;4.20;95.02;99810.88;5094069;28;20545;-84
2021/10/29 05:32:46;;;;;;;4.85;2.00;;;;;;;4.28;93.68;99804.34;5094567;28;20036;-81
2021/10/29 05:35:12;;;;;;;0.60;0.60;;;;;;;3.48;92.64;99711.66;5093915;28;20400;-80
2021/10/29 05:37:38;;;;;;;2.22;2.13;;;;;;;3.89;92.25;99779.13;5093972;28;20139;-81
2021/10/29 05:40:05;;;;;;;0.85;0.85;;;;;;;4.36;91.82;99816.19;5093410;28;20028;-82
2021/10/29 05:42:31;;;;;;;3.47;3.15;;;;;;;4.17;92.21;99786.19;5093644;28;20080;-83
2021/10/29 05:44:57;;;;;;;1.48;0.73;;;;;;;4.47;91.13;99789.78;5092948;28;20120;-82
2021/10/29 05:47:23;;;;;;;1.23;1.13;;;;;;;4.50;91.54;99805.47;5093196;28;20020;-82
2021/10/29 05:49:48;;;;;;;0.50;0.50;;;;;;;4.82;91.41;99839.53;5091821;28;20028;-83
2021/10/29 05:52:25;;;;;;;0.63;0.63;;;;;;;4.82;91.34;99834.06;5093201;28;20032;-83
2021/10/29 05:57:25;;;;;;;0.63;0.63;;;;;;;4.94;90.84;99780.25;5094789;28;20487;-82
2021/10/29 05:59:52;;;;;;;0.93;0.93;;;;;;;5.32;90.68;99821.03;5092932;28;20105;-82
2021/10/29 06:02:18;;;;;;;0.20;0.20;;;;;;;5.37;90.33;99820.69;5093559;28;20028;-84
2021/10/29 06:04:44;;;;;;;0.50;0.50;;;;;;;5.59;91.23;99828.00;5093367;28;20123;-84
2021/10/29 06:07:09;;;;;;;1.17;1.05;;;;;;;5.78;91.81;99831.72;5092932;28;20024;-82
2021/10/29 06:09:35;;;;;;;1.38;1.27;;;;;;;6.53;91.38;99828.47;5092277;28;20024;-81
2021/10/29 06:12:01;;;;;;;5.38;1.88;;;;;;;7.75;85.43;99792.88;5092641;28;20020;-80
2021/10/29 06:14:27;;;;;;;0.50;0.50;;;;;;;8.69;81.35;99829.06;5094362;28;20032;-78
2021/10/29 06:16:56;;;;;;;0.77;0.77;;;;;;;9.08;77.82;99795.13;5093025;28;20028;-78
2021/10/29 06:19:22;;;;;;;0.85;0.82;;;;;;;9.32;76.72;99841.13;5093199;28;20055;-78
2021/10/29 06:22:02;;;;;;;0.82;0.82;;;;;;;9.80;75.37;99853.09;5092939;28;20464;-79
2021/10/29 06:24:28;;;;;;;1.05;1.05;;;;;;;9.63;75.54;99848.47;5094537;28;20030;-80
2021/10/29 06:27:06;;;;;;;3.22;1.90;;;;;;;8.98;77.34;99833.34;5094481;28;20024;-77
2021/10/29 06:29:32;;;;;;;1.52;1.42;;;;;;;8.89;78.17;99821.16;5093244;28;20415;-79
2021/10/29 06:31:58;;;;;;;0.65;0.65;;;;;;;8.54;79.10;99814.53;5092883;28;20024;-78
2021/10/29 06:34:23;;;;;;;0.80;0.80;;;;;;;8.53;80.44;99842.47;5093982;28;20048;-78
2021/10/29 06:36:49;;;;;;;0.70;0.70;;;;;;;8.44;81.10;99853.88;5093682;28;20028;-79
2021/10/29 06:39:16;;;;;;;2.47;1.75;;;;;;;8.30;81.27;99836.56;5093275;28;20028;-79
2021/10/29 06:41:42;;;;;;;1.35;1.13;;;;;;;8.12;82.20;99820.03;5092914;28;20502;-79
2021/10/29 06:44:32;;;;;;;1.05;1.05;;;;;;;8.26;82.32;99838.53;5092673;28;20055;-78
2021/10/29 07:00:26;;;;;;;0.20;0.20;;;;;;;8.73;82.97;99851.13;5092634;28;20119;-77
2021/10/29 07:40:41;;;;;;;1.00;1.00;;;;;;;9.97;80.62;99851.41;5093143;28;20047;-77
2021/10/29 07:43:09;;;;;;;0.52;0.52;;;;;;;10.13;79.68;99859.97;5091658;28;20055;-79
2021/10/29 07:45:34;;;;;;;3.13;2.42;;;;;;;10.22;79.95;99843.00;5092911;28;20084;-78
2021/10/29 07:48:00;;;;;;;0.95;0.95;;;;;;;10.41;79.87;99855.47;5091735;28;20449;-78
2021/10/29 07:50:27;;;;;;;2.67;2.47;;;;;;;10.38;77.35;99837.72;5091539;28;20085;-79
2021/10/29 07:52:54;;;;;;;1.20;1.10;;;;;;;10.69;76.85;99840.63;5091728;28;20471;-77
2021/10/29 07:55:23;;;;;;;1.95;1.85;;;;;;;10.82;76.59;99827.84;5091476;28;20032;-76
2021/10/29 07:57:49;;;;;;;1.70;0.88;;;;;;;10.92;77.76;99857.38;5091032;28;20046;-78
2021/10/29 08:00:17;;;;;;;1.25;1.15;;;;;;;10.91;76.62;99840.00;5091299;28;20483;-76
2021/10/29 08:02:44;;;;;;;0.83;0.83;;;;;;;10.76;77.10;99830.28;5091748;28;20024;-78
2021/10/29 08:05:10;;;;;;;1.05;1.05;;;;;;;10.98;76.90;99836.38;5092592;28;20266;-77
2021/10/29 08:07:35;;;;;;;9.88;3.50;;;;;;;10.60;77.11;99805.97;5091231;28;20400;-76
2021/10/29 08:10:03;;;;;;;1.42;1.33;;;;;;;11.05;75.99;99839.06;5091246;28;20058;-77
2021/10/29 08:12:29;;;;;;;1.40;0.65;;;;;;;11.23;75.14;99845.19;5090766;28;20028;-77
2021/10/29 08:14:56;;;;;;;9.40;2.55;;;;;;;11.25;75.46;99833.72;5091257;28;20144;-76
2021/10/29 08:17:21;;;;;;;2.42;2.25;;;;;;;11.31;74.34;99807.94;5091611;28;20059;-76
2021/10/29 08:19:47;;;;;;;1.30;1.02;;;;;;;11.48;74.15;99841.31;5091379;28;20050;-76
2021/10/29 08:22:13;;;;;;;1.08;1.08;;;;;;;11.50;74.53;99827.88;5091208;28;20459;-80
2021/10/29 08:24:39;;;;;;;1.42;1.00;;;;;;;11.41;73.96;99837.47;5091153;28;20027;-77
2021/10/29 08:27:07;;;;;;;1.50;1.50;;;;;;;11.58;74.71;99829.31;5091553;28;20078;-75
2021/10/29 08:29:32;;;;;;;1.83;1.73;;;;;;;11.58;74.70;99851.47;5091027;28;20520;-77
2021/10/29 08:31:58;;;;;;;1.88;1.77;;;;;;;11.53;74.07;99805.69;5090810;28;20027;-74
2021/10/29 08:34:25;;;;;;;1.45;1.45;;;;;;;11.66;73.41;99844.66;5092116;28;20080;-74
2021/10/29 08:36:56;;;;;;;3.40;3.20;;;;;;;11.57;74.93;99789.81;5092392;28;20036;-76
2021/10/29 08:39:22;;;;;;;2.33;2.22;;;;;;;11.66;74.94;99830.81;5090877;28;20024;-78
2021/10/29 08:41:48;;;;;;;3.00;2.75;;;;;;;11.88;73.29;99834.09;5090953;28;20039;-78
2021/10/29 08:44:15;;;;;;;3.15;2.00;;;;;;;11.48;72.99;99791.50;5091528;28;20028;-77
2021/10/29 08:46:42;;;;;;;3.57;3.27;;;;;;;11.54;74.59;99801.72;5090925;28;20078;-76
2021/10/29 08:49:09;;;;;;;1.80;1.13;;;;;;;11.39;73.89;99809.41;5090572;28;20156;-77
2021/10/29 08:51:36;;;;;;;7.50;6.78;;;;;;;11.58;73.66;99787.81;5090967;28;20024;-76
2021/10/29 08:54:02;;;;;;;4.50;4.03;;;;;;;11.81;72.80;99813.59;5090618;28;20380;-75
2021/10/29 14:33:55;;;;;;;1.35;1.33;;;;;;;11.30;69.38;99590.56;5107560;27;1334943;-78
2021/10/29 14:36:23;;;;;;;1.05;1.05;;;;;;;11.31;68.21;99556.19;5129892;28;20066;-76
2021/10/29 14:39:08;;;;;;;;;;;;;;;11.80;66.68;99584.22;5129820;28;20027;-78
2021/10/29 14:41:41;;;;;;;2.90;2.25;;;;;;;11.76;69.71;99575.97;5130785;27;19908;-79
2021/10/29 14:44:14;;;;;;;2.10;1.98;;;;;;;11.52;68.86;99563.31;5129337;28;20089;-80
2021/10/29 14:46:47;;;;;;;6.07;5.30;;;;;;;11.53;68.45;99570.44;5129906;28;20466;-78
2021/10/29 15:00:47;;;;;;;1.83;1.20;;;;;;;11.08;72.95;99575.53;5110228;28;20076;-77
2021/10/29 15:16:26;;;;;;;2.40;1.08;;;;;;;9.81;78.32;99555.81;5110148;28;20035;-76
2021/10/29 15:26:53;;;;;;;2.15;1.95;;;;;;;9.19;80.94;99564.25;5109683;28;20437;-80
2021/10/29 15:45:34;;;;;;;2.00;1.27;;;;;;;9.08;81.29;99541.50;5094736;28;20059;-78
2021/10/29 15:48:17;;;;;;;3.55;3.35;;;;;;;9.07;81.92;99592.31;5093018;28;20054;-79
2021/10/29 15:50:43;;;;;;;8.18;7.30;;;;;;;8.85;81.84;99544.84;5094685;28;20020;-78
2021/10/29 15:53:11;;;;;;;8.13;7.32;;;;;;;8.96;82.51;99568.38;5094762;28;20391;-78
2021/10/29 15:55:45;;;;;;;9.10;8.35;;;;;;;9.06;82.16;99582.47;5094523;28;20050;-80
2021/10/29 16:03:31;;;;;;;2.15;2.05;;;;;;;8.79;82.05;99571.25;5094424;28;20476;-79
2021/10/29 16:19:30;;;;;;;0.30;0.30;;;;;;;8.13;85.29;99585.69;5094183;28;20135;-80
2021/10/29 16:21:57;;;;;;;0.60;0.60;;;;;;;8.14;85.29;99603.75;5092636;28;20483;-78
2021/10/29 16:24:22;;;;;;;0.70;0.70;;;;;;;8.11;85.59;99588.03;5093380;28;20035;-81
2021/10/29 16:26:49;;;;;;;1.10;1.05;;;;;;;8.03;85.30;99591.19;5093050;28;20020;-80
2021/10/29 16:29:20;;;;;;;0.85;0.85;;;;;;;8.13;85.00;99610.47;5093176;28;20076;-75
2021/10/29 16:31:47;;;;;;;0.68;0.68;;;;;;;8.04;84.41;99596.31;5092428;28;20020;-73
2021/10/29 16:34:12;;;;;;;0.90;0.90;;;;;;;7.99;84.49;99601.44;5093845;28;20059;-72
2021/10/29 16:36:38;;;;;;;0.93;0.93;;;;;;;7.86;85.21;99620.34;5092568;28;20490;-78
2021/10/29 16:39:04;;;;;;;0.65;0.65;;;;;;;7.71;86.06;99599.53;5092762;28;20391;-79
2021/10/29 16:41:30;;;;;;;0.65;0.65;;;;;;;7.68;86.29;99601.09;5094125;28;20032;-76
2021/10/29 16:43:55;;;;;;;0.20;0.20;;;;;;;7.12;85.97;99522.19;5092596;28;20012;-77
2021/10/29 16:46:21;;;;;;;1.33;1.33;;;;;;;7.69;85.66;99610.16;5092651;28;20020;-79
2021/10/29 16:48:46;;;;;;;0.28;0.28;;;;;;;7.78;85.70;99612.50;5092215;28;20420;-79
2021/10/29 16:51:14;;;;;;;0.63;0.63;;;;;;;7.88;84.85;99615.22;5092358;28;20027;-80
2021/10/29 16:53:41;;;;;;;0.52;0.52;;;;;;;7.75;84.41;99598.34;5092351;28;20019;-75
2021/10/29 16:56:07;;;;;;;0.40;0.40;;;;;;;7.88;84.51;99615.22;5092802;28;20040;-80
2021/10/29 16:58:33;;;;;;;0.90;0.90;;;;;;;7.94;84.75;99616.41;5092257;28;20027;-78
2021/10/29 17:00:58;;;;;;;0.45;0.45;;;;;;;8.09;84.40;99628.94;5092293;28;20469;-76
2021/10/29 17:03:24;;;;;;;1.75;1.65;;;;;;;8.10;84.50;99630.50;5091855;28;20019;-80
2021/10/29 17:05:51;;;;;;;0.63;0.63;;;;;;;8.17;84.59;99637.97;5091566;28;20391;-80
2021/10/29 17:08:17;;;;;;;0.40;0.40;;;;;;;8.11;83.77;99623.81;5093485;28;20065;-75
2021/10/29 17:10:43;;;;;;;0.30;0.30;;;;;;;8.16;83.46;99633.63;5091899;28;20473;-79
2021/10/29 17:13:10;;;;;;;1.23;1.20;;;;;;;8.12;83.16;99619.91;5091787;28;20115;-80
2021/10/29 17:15:36;;;;;;;0.63;0.63;;;;;;;8.22;82.31;99631.25;5093319;28;20059;-78
2021/10/29 17:18:03;;;;;;;0.55;0.55;;;;;;;8.11;82.77;99606.53;5091221;28;20077;-79
2021/10/29 17:20:30;;;;;;;0.70;0.52;;;;;;;7.79;82.02;99568.06;5093083;28;20024;-78
2021/10/29 17:22:55;;;;;;;1.27;1.27;;;;;;;8.12;82.19;99639.16;5091944;28;20020;-78
2021/10/29 17:25:21;;;;;;;2.67;2.15;;;;;;;8.01;83.18;99638.41;5091861;28;20032;-80
2021/10/29 17:27:47;;;;;;;1.77;1.67;;;;;;;7.87;83.71;99626.63;5091511;28;20064;-79
2021/10/29 17:30:14;;;;;;;7.53;2.72;;;;;;;7.70;84.13;99628.22;5092996;28;20089;-77
2021/10/29 17:32:42;;;;;;;1.17;1.17;;;;;;;7.55;85.02;99618.41;5091271;28;20079;-80
2021/10/29 17:35:08;;;;;;;5.40;2.95;;;;;;;7.55;85.22;99640.41;5091465;28;20115;-80
2021/10/29 17:37:33;;;;;;;4.07;3.70;;;;;;;7.32;85.51;99611.34;5091785;28;20127;-80
2021/10/29 17:40:00;;;;;;;7.72;3.25;;;;;;;7.57;86.73;99654.56;5091341;28;20466;-79
2021/10/29 17:42:27;;;;;;;2.72;2.53;;;;;;;7.38;86.30;99644.72;5092496;28;20031;-78
2021/10/29 17:44:53;;;;;;;4.57;3.75;;;;;;;7.27;85.74;99636.47;5091445;28;20066;-79
2021/10/29 17:47:19;;;;;;;3.22;2.95;;;;;;;7.12;86.83;99634.06;5091258;28;20480;-79
2021/10/29 17:49:46;;;;;;;1.67;1.63;;;;;;;7.12;86.67;99645.84;5091150;28;20060;-80
2021/10/29 17:52:11;;;;;;;5.35;3.35;;;;;;;7.29;86.08;99650.59;5091369;28;20028;-79
2021/10/29 17:54:39;;;;;;;1.58;1.55;;;;;;;7.44;85.77;99664.34;5091307;28;20076;-78
2021/10/29 17:57:07;;;;;;;2.33;2.17;;;;;;;7.15;86.16;99658.84;5092699;28;20031;-80
2021/10/29 17:59:35;;;;;;;1.70;1.63;;;;;;;7.43;86.63;99668.28;5092460;28;20551;-79
2021/10/29 18:02:12;;;;;;;1.75;1.73;;;;;;;7.59;85.56;99660.44;5090763;28;20162;-80
2021/10/29 18:04:38;;;;;;;1.65;1.55;;;;;;;7.31;86.16;99659.25;5091105;28;20497;-80
2021/10/29 18:07:06;;;;;;;0.75;0.75;;;;;;;7.22;85.33;99653.34;5091286;28;20032;-77
2021/10/29 18:09:37;;;;;;;1.17;1.17;;;;;;;7.07;85.53;99659.97;5092277;28;20042;-79
2021/10/29 18:12:04;;;;;;;1.05;1.05;;;;;;;6.92;84.98;99652.91;5092265;28;20031;-81
2021/10/29 18:14:29;;;;;;;1.58;1.48;;;;;;;6.77;86.53;99673.25;5091528;28;20073;-79
2021/10/29 18:16:55;;;;;;;1.92;1.83;;;;;;;6.85;86.21;99681.13;5091604;28;20024;-78
2021/10/29 18:19:20;;;;;;;1.65;1.38;;;;;;;6.90;85.92;99674.47;5091196;28;20027;-79
2021/10/29 18:21:46;;;;;;;0.52;0.52;;;;;;;6.85;84.90;99685.84;5090985;28;20093;-81
2021/10/29 18:24:14;;;;;;;1.27;1.27;;;;;;;6.39;85.24;99600.56;5091240;28;20028;-80
2021/10/29 18:26:39;;;;;;;1.63;1.23;;;;;;;7.04;85.06;99687.47;5091122;28;20093;-77
2021/10/29 18:29:07;;;;;;;1.77;1.67;;;;;;;6.62;85.52;99638.69;5090989;28;20115;-77
2021/10/29 18:31:34;;;;;;;1.17;1.17;;;;;;;7.03;85.04;99680.41;5091163;28;20031;-80
2021/10/29 18:34:00;;;;;;;3.40;3.10;;;;;;;7.09;84.93;99687.88;5090557;28;20052;-80
2021/10/29 18:36:26;;;;;;;5.70;3.80;;;;;;;7.01;86.16;99682.72;5091404;28;20024;-81
2021/10/29 18:38:52;;;;;;;0.93;0.93;;;;;;;6.78;85.96;99663.84;5091059;28;20031;-77
2021/10/29 18:41:19;;;;;;;1.00;1.00;;;;;;;6.69;86.80;99699.13;5092263;28;20045;-80
2021/10/29 18:43:45;;;;;;;1.27;1.27;;;;;;;6.44;88.82;99691.56;5090367;28;20036;-79
2021/10/29 18:46:12;;;;;;;0.60;0.60;;;;;;;6.69;88.20;99699.13;5090839;28;20101;-80
2021/10/29 18:48:38;;;;;;;2.53;1.13;;;;;;;6.16;87.53;99636.50;5091975;28;20518;-78
2021/10/29 18:51:03;;;;;;;2.70;1.55;;;;;;;6.34;86.60;99680.50;5090976;28;20458;-78
2021/10/29 18:53:29;;;;;;;1.17;0.65;;;;;;;6.28;85.60;99684.78;5091320;28;20047;-77
2021/10/29 18:55:54;;;;;;;1.27;1.27;;;;;;;6.20;85.31;99667.50;5090946;28;20464;-79
2021/10/29 18:58:20;;;;;;;0.77;0.77;;;;;;;6.48;85.03;99699.78;5090833;28;20061;-78
2021/10/29 19:00:45;;;;;;;0.95;0.95;;;;;;;6.43;85.54;99702.91;5091235;28;20475;-78
2021/10/29 19:03:11;;;;;;;0.77;0.77;;;;;;;5.98;85.42;99649.31;5090521;28;20114;-79
2021/10/29 19:05:36;;;;;;;1.88;1.77;;;;;;;6.24;86.47;99705.94;5090636;28;20023;-79
2021/10/29 19:08:03;;;;;;;0.52;0.52;;;;;;;6.27;87.21;99714.16;5090835;28;20368;-80
2021/10/29 19:10:32;;;;;;;0.85;0.85;;;;;;;6.08;85.97;99704.28;5090430;28;20063;-78
2021/10/29 19:12:58;;;;;;;6.93;2.28;;;;;;;5.63;86.49;99694.47;5090409;28;20032;-78
2021/10/29 19:15:24;;;;;;;0.90;0.90;;;;;;;5.85;86.49;99711.88;5090903;28;20028;-80
2021/10/29 19:17:50;;;;;;;0.65;0.65;;;;;;;5.54;87.42;99707.72;5090272;28;20020;-79